Time;durP1;ratioP1;P1;durP2;ratioP2;P2;SDS_P1;SDS_P2;PMS_P1;PMS_P2;Temp;Humidity;BMP_temperature;BMP_pressure;BME280_temperature;BME280_humidity;BME280_pressure;Samples;Min_cycle;Max_cycle;Signal;HPM_P1;HPM_P2
2022/06/01 00:02:08;;;;;;;25.30;22.55;;;;;;;9.81;100.00;163128.88;5071924;28;20457;-61
2022/06/01 00:04:34;;;;;;;24.75;16.77;;;;;;;9.84;100.00;163138.34;5073484;28;20097;-61
2022/06/01 00:06:59;;;;;;;18.67;16.73;;;;;;;9.83;100.00;163134.25;5070669;28;20503;-61
2022/06/01 00:09:25;;;;;;;18.13;16.23;;;;;;;9.81;100.00;163130.22;5072761;28;20086;-60
2022/06/01 00:11:50;;;;;;;21.40;19.33;;;;;;;9.78;100.00;163122.16;5071817;28;20040;-61
2022/06/01 00:14:15;;;;;;;19.00;17.08;;;;;;;9.77;100.00;163119.44;5073484;28;20085;-60
2022/06/01 00:16:42;;;;;;;19.58;17.83;;;;;;;9.70;100.00;163100.56;5071423;28;20049;-61
2022/06/01 00:19:08;;;;;;;21.70;18.60;;;;;;;9.78;100.00;163120.78;5073596;28;20029;-60
2022/06/01 00:21:34;;;;;;;21.98;19.98;;;;;;;9.75;100.00;163114.03;5071237;28;20151;-60
2022/06/01 00:23:59;;;;;;;22.50;20.02;;;;;;;9.75;100.00;163114.03;5072412;28;20415;-60
2022/06/01 00:26:25;;;;;;;21.50;19.27;;;;;;;9.75;100.00;163114.03;5070768;28;20040;-61
2022/06/01 00:28:50;;;;;;;22.33;20.20;;;;;;;9.74;100.00;163111.34;5071541;28;20024;-61
2022/06/01 00:31:15;;;;;;;19.85;17.95;;;;;;;9.64;100.00;163085.72;5070333;28;20492;-61
2022/06/01 00:33:42;;;;;;;20.65;18.75;;;;;;;9.62;100.00;163080.31;5071927;28;20028;-61
2022/06/01 00:36:10;;;;;;;22.25;19.27;;;;;;;9.65;100.00;163087.03;5070014;28;20412;-60
2022/06/01 00:38:35;;;;;;;22.40;20.20;;;;;;;9.61;100.00;163077.59;5071457;28;20037;-60
2022/06/01 00:41:01;;;;;;;20.27;18.13;;;;;;;9.57;100.00;163065.50;5070188;28;20050;-61
2022/06/01 00:43:36;;;;;;;23.33;21.17;;;;;;;9.60;100.00;163073.56;5071050;28;20029;-60
2022/06/01 00:46:02;;;;;;;22.35;20.15;;;;;;;9.50;100.00;163049.28;5069453;28;20040;-61
2022/06/01 00:48:30;;;;;;;22.15;20.25;;;;;;;9.48;100.00;163043.91;5071842;28;20034;-61
2022/06/01 00:50:55;;;;;;;23.80;21.65;;;;;;;9.46;100.00;163038.50;5070091;28;20036;-61
2022/06/01 00:53:27;;;;;;;22.83;20.40;;;;;;;9.44;100.00;163033.09;5071311;28;20035;-61
2022/06/01 00:55:57;;;;;;;26.05;23.55;;;;;;;9.42;100.00;163027.69;5070064;28;20123;-61
2022/06/01 00:58:30;;;;;;;24.50;21.95;;;;;;;9.37;100.00;163014.22;5071599;28;20028;-61
2022/06/01 01:00:56;;;;;;;26.45;23.60;;;;;;;9.36;100.00;163011.50;5069081;28;20041;-61
2022/06/01 01:03:25;;;;;;;30.35;27.35;;;;;;;9.38;100.00;163016.91;5071548;28;20131;-60
2022/06/01 01:06:20;;;;;;;25.63;23.13;;;;;;;9.34;100.00;163006.16;5069900;28;20064;-60
2022/06/01 01:08:47;;;;;;;26.85;24.42;;;;;;;9.33;100.00;163003.44;5071025;28;20094;-61
2022/06/01 01:11:14;;;;;;;30.75;27.98;;;;;;;9.32;100.00;163000.75;5069912;28;20419;-60
2022/06/01 01:13:45;;;;;;;28.30;25.15;;;;;;;9.34;100.00;163007.47;5070522;28;20029;-61
2022/06/01 01:16:11;;;;;;;27.88;25.27;;;;;;;9.34;100.00;163006.16;5069873;28;20415;-62
2022/06/01 01:18:40;;;;;;;29.35;26.55;;;;;;;9.30;100.00;162995.34;5071124;28;20020;-60
2022/06/01 01:21:21;;;;;;;30.48;27.45;;;;;;;9.36;100.00;163012.88;5069195;28;20044;-61
2022/06/01 01:24:18;;;;;;;31.05;27.98;;;;;;;9.31;100.00;162999.38;5031576;28;1047359;-60
2022/06/01 01:26:48;;;;;;;31.33;28.50;;;;;;;9.32;100.00;163000.75;5070060;28;20044;-60
2022/06/01 01:29:15;;;;;;;32.13;29.15;;;;;;;9.32;100.00;163000.75;5072182;28;20021;-60
2022/06/01 01:31:43;;;;;;;33.75;30.42;;;;;;;9.27;100.00;162987.28;5070543;28;20044;-60
2022/06/01 01:34:09;;;;;;;33.20;29.77;;;;;;;9.28;100.00;162989.91;5071797;28;20027;-60
2022/06/01 01:36:44;;;;;;;32.22;28.73;;;;;;;9.31;100.00;162999.38;5070292;28;20170;-60
2022/06/01 01:39:12;;;;;;;32.72;29.73;;;;;;;9.29;100.00;162992.63;5071904;28;20036;-60
2022/06/01 01:41:48;;;;;;;35.45;32.15;;;;;;;9.25;100.00;162981.84;5069478;28;20061;-60
2022/06/01 01:44:19;;;;;;;36.92;33.22;;;;;;;9.25;100.00;162981.84;5071449;28;20078;-60
2022/06/01 01:46:47;;;;;;;35.47;32.17;;;;;;;9.26;100.00;162984.56;5069323;28;20536;-60
2022/06/01 01:49:17;;;;;;;36.55;32.72;;;;;;;9.27;100.00;162988.59;5071604;28;20035;-60
2022/06/01 01:51:44;;;;;;;35.08;31.38;;;;;;;9.28;100.00;162989.91;5069555;28;20037;-60
2022/06/01 01:54:47;;;;;;;36.88;33.15;;;;;;;9.22;100.00;162975.13;5070531;28;20051;-60
2022/06/01 01:57:24;;;;;;;34.00;30.60;;;;;;;9.27;100.00;162987.28;5070216;28;20072;-60
2022/06/01 02:00:08;;;;;;;35.37;31.63;;;;;;;9.27;100.00;162987.28;5070891;28;20170;-59
2022/06/01 02:02:48;;;;;;;34.00;30.58;;;;;;;9.21;100.00;162973.75;5070132;28;20048;-60
2022/06/01 02:08:19;;;;;;;36.88;33.15;;;;;;;9.21;100.00;162973.75;5071633;28;20063;-61
2022/06/01 02:13:31;;;;;;;34.42;31.30;;;;;;;9.24;100.00;162979.16;5070657;28;20407;-61
2022/06/01 02:15:59;;;;;;;36.17;32.83;;;;;;;9.23;100.00;162976.44;5069502;28;20033;-62
2022/06/01 02:18:34;;;;;;;35.33;31.65;;;;;;;9.25;100.00;162981.84;5070772;28;20040;-61
2022/06/01 02:21:04;;;;;;;35.25;31.85;;;;;;;9.25;100.00;162981.84;5068582;28;20526;-61
2022/06/01 02:23:31;;;;;;;36.05;32.65;;;;;;;9.25;100.00;162981.84;5071019;28;20025;-61
2022/06/01 02:25:59;;;;;;;39.58;35.80;;;;;;;9.25;100.00;162981.84;5069325;28;20063;-61
2022/06/01 02:28:25;;;;;;;39.78;35.92;;;;;;;9.24;100.00;162979.16;5070885;28;20043;-61
2022/06/01 02:30:52;;;;;;;38.70;35.00;;;;;;;9.25;100.00;162981.84;5069274;28;20055;-61
2022/06/01 02:33:24;;;;;;;37.35;33.58;;;;;;;9.29;100.00;162992.63;5070820;28;20034;-61
2022/06/01 02:35:53;;;;;;;39.47;35.45;;;;;;;9.28;100.00;162991.31;5068279;28;20067;-61
2022/06/01 02:38:26;;;;;;;37.70;34.05;;;;;;;9.30;100.00;162996.72;5069853;28;20021;-62
2022/06/01 02:40:52;;;;;;;36.13;32.28;;;;;;;9.31;100.00;162998.03;5068634;28;20559;-61
2022/06/01 02:43:18;;;;;;;39.90;35.88;;;;;;;9.27;100.00;162987.28;5069995;28;20137;-62
2022/06/01 02:45:43;;;;;;;39.42;35.45;;;;;;;9.19;100.00;162967.00;5069231;28;20082;-62
2022/06/01 02:48:09;;;;;;;38.35;34.42;;;;;;;9.19;100.00;162968.38;5070568;28;20025;-62
2022/06/01 02:50:36;;;;;;;38.03;34.03;;;;;;;9.17;100.00;162962.97;5069166;28;20473;-61
2022/06/01 02:53:02;;;;;;;36.63;32.83;;;;;;;9.14;100.00;162954.88;5070282;28;20020;-61
2022/06/01 02:55:29;;;;;;;38.35;34.63;;;;;;;9.09;100.00;162941.41;5049693;28;20118;-61
2022/06/01 02:57:55;;;;;;;37.08;33.20;;;;;;;9.05;100.00;162930.59;5055919;28;20020;-61
2022/06/01 03:00:40;;;;;;;32.90;29.52;;;;;;;9.04;100.00;162929.25;5069006;28;20043;-60
2022/06/01 03:03:08;;;;;;;33.58;30.15;;;;;;;9.06;100.00;162933.28;5068462;28;20048;-60
2022/06/01 03:05:37;;;;;;;39.05;35.15;;;;;;;9.05;100.00;162930.59;5059127;28;20689;-60
2022/06/01 03:08:02;;;;;;;40.35;36.15;;;;;;;9.09;100.00;162941.41;5061415;28;20158;-61
2022/06/01 03:10:29;;;;;;;40.60;36.30;;;;;;;9.10;100.00;162942.72;5061198;28;20045;-62
2022/06/01 03:12:55;;;;;;;38.33;34.40;;;;;;;9.06;100.00;162933.28;5059917;28;20170;-61
2022/06/01 03:15:22;;;;;;;36.33;32.45;;;;;;;9.12;100.00;162949.47;5057418;28;20040;-61
2022/06/01 03:17:48;;;;;;;35.00;31.42;;;;;;;9.10;100.00;162944.09;5054432;28;20025;-61
2022/06/01 03:20:17;;;;;;;36.47;32.78;;;;;;;9.11;100.00;162945.44;5058585;28;20439;-61
2022/06/01 03:22:43;;;;;;;36.67;32.85;;;;;;;9.06;100.00;162933.28;5062715;28;20040;-63
2022/06/01 03:25:16;;;;;;;36.35;32.65;;;;;;;9.06;100.00;162933.28;5059897;28;20404;-62
2022/06/01 03:27:41;;;;;;;39.90;35.83;;;;;;;9.06;100.00;162933.28;5057980;28;20036;-63
2022/06/01 03:30:10;;;;;;;38.05;34.33;;;;;;;9.02;100.00;162922.53;5058735;28;20028;-62
2022/06/01 03:32:36;;;;;;;38.47;34.28;;;;;;;9.07;100.00;162936.00;5062701;28;20115;-62
2022/06/01 03:35:03;;;;;;;39.75;35.63;;;;;;;9.07;100.00;162936.00;5056600;28;20105;-62
2022/06/01 03:37:28;;;;;;;39.85;35.53;;;;;;;9.11;100.00;162945.44;5059640;28;20031;-62
2022/06/01 03:39:54;;;;;;;49.22;33.88;;;;;;;9.11;100.00;162946.81;5061811;28;20033;-62
2022/06/01 03:42:19;;;;;;;39.22;35.28;;;;;;;9.10;100.00;162944.09;5060717;28;20037;-62
2022/06/01 03:47:28;;;;;;;39.78;35.67;;;;;;;9.02;100.00;162922.53;5057787;28;20128;-62
2022/06/01 03:49:54;;;;;;;44.38;39.90;;;;;;;8.98;100.00;162913.09;5060776;28;20028;-62
2022/06/01 03:52:19;;;;;;;44.63;39.60;;;;;;;8.91;100.00;162892.81;5057032;28;20041;-62
2022/06/01 03:54:45;;;;;;;43.25;38.55;;;;;;;8.92;100.00;162895.53;5061229;28;20383;-62
2022/06/01 03:57:12;;;;;;;43.50;38.90;;;;;;;8.94;100.00;162902.28;5063918;28;20102;-62
2022/06/01 03:59:37;;;;;;;47.15;42.22;;;;;;;8.90;100.00;162891.50;5057853;28;20021;-62
2022/06/01 04:02:04;;;;;;;47.78;42.60;;;;;;;8.84;100.00;162876.66;5053154;28;20041;-62
2022/06/01 04:04:30;;;;;;;48.08;43.10;;;;;;;8.89;100.00;162890.19;5049546;28;20032;-61
2022/06/01 04:06:56;;;;;;;47.85;42.80;;;;;;;8.86;100.00;162882.06;5060513;28;20542;-61
2022/06/01 04:09:21;;;;;;;46.05;41.28;;;;;;;8.84;100.00;162876.66;5069918;28;20028;-61
2022/06/01 04:11:46;;;;;;;48.38;43.10;;;;;;;8.79;100.00;162861.81;5067621;28;20450;-60
2022/06/01 04:14:12;;;;;;;46.72;41.72;;;;;;;8.82;100.00;162871.31;5069228;28;20054;-57
2022/06/01 04:16:37;;;;;;;47.67;42.67;;;;;;;8.81;100.00;162868.59;5068239;28;20040;-57
2022/06/01 04:19:03;;;;;;;53.60;47.92;;;;;;;8.84;100.00;162876.66;5071001;28;20395;-56
2022/06/01 04:21:32;;;;;;;59.00;48.55;;;;;;;8.91;100.00;162892.81;5072021;28;20067;-56
2022/06/01 04:24:01;;;;;;;53.25;47.60;;;;;;;8.96;100.00;162906.34;5072196;28;20065;-56
2022/06/01 04:26:27;;;;;;;48.33;43.35;;;;;;;9.03;100.00;162925.22;5071552;28;20669;-56
2022/06/01 04:28:53;;;;;;;50.38;45.10;;;;;;;9.09;100.00;162941.41;5073011;28;20056;-56
2022/06/01 04:31:19;;;;;;;50.25;44.83;;;;;;;9.14;100.00;162954.88;5071842;28;20529;-56
2022/06/01 04:33:44;;;;;;;44.63;39.97;;;;;;;9.19;100.00;162967.00;5072121;28;20024;-57
2022/06/01 04:36:10;;;;;;;40.72;36.33;;;;;;;9.29;100.00;162992.63;5070652;28;20040;-56
2022/06/01 04:38:35;;;;;;;42.30;37.85;;;;;;;9.25;100.00;162981.84;5072221;28;20071;-56
2022/06/01 04:41:00;;;;;;;38.40;34.55;;;;;;;9.21;100.00;162973.75;5071178;28;20048;-56
2022/06/01 04:43:26;;;;;;;41.05;36.80;;;;;;;9.16;100.00;162958.91;5072352;28;20038;-56
2022/06/01 04:45:53;;;;;;;39.95;35.88;;;;;;;9.24;100.00;162980.47;5070502;28;20380;-56
2022/06/01 04:48:19;;;;;;;41.10;36.95;;;;;;;9.28;100.00;162989.91;5072926;28;20434;-56
2022/06/01 04:50:44;;;;;;;40.20;35.97;;;;;;;9.31;100.00;162998.03;5071009;28;20072;-56
2022/06/01 04:53:12;;;;;;;38.15;34.03;;;;;;;9.28;100.00;162989.91;5072811;28;20360;-56
2022/06/01 04:55:37;;;;;;;41.08;37.05;;;;;;;9.24;100.00;162980.47;5071444;28;20064;-56
2022/06/01 04:58:03;;;;;;;39.95;35.75;;;;;;;9.24;100.00;162980.47;5072121;28;20028;-56
2022/06/01 05:00:28;;;;;;;38.05;33.97;;;;;;;9.25;100.00;162981.84;5071138;28;20460;-56
2022/06/01 05:02:53;;;;;;;39.97;35.75;;;;;;;9.26;100.00;162984.56;5072442;28;20029;-57
2022/06/01 05:05:19;;;;;;;41.20;36.83;;;;;;;9.28;100.00;162989.91;5070954;28;20534;-56
2022/06/01 05:07:44;;;;;;;40.95;36.70;;;;;;;9.34;100.00;163007.47;5072492;28;20024;-56
2022/06/01 05:10:09;;;;;;;41.78;37.28;;;;;;;9.42;100.00;163027.69;5065073;28;20024;-57
2022/06/01 05:12:35;;;;;;;42.28;36.00;;;;;;;9.52;100.00;163054.69;5059878;28;20044;-56
2022/06/01 05:15:00;;;;;;;38.33;34.40;;;;;;;9.61;100.00;163077.59;5050758;28;20388;-56
2022/06/01 05:17:26;;;;;;;46.22;38.38;;;;;;;9.74;100.00;163111.34;5052407;28;20457;-56
2022/06/01 05:19:51;;;;;;;39.17;35.15;;;;;;;9.87;100.00;163143.69;5052026;28;20036;-56
2022/06/01 05:22:16;;;;;;;36.40;32.90;;;;;;;9.96;100.00;163169.38;5050745;28;20040;-57
2022/06/01 05:24:42;;;;;;;33.75;30.60;;;;;;;10.07;100.00;163196.31;5051902;28;20055;-56
2022/06/01 05:27:07;;;;;;;30.33;27.42;;;;;;;10.15;100.00;163217.91;5050439;28;20041;-56
2022/06/01 05:29:34;;;;;;;32.42;28.90;;;;;;;10.20;100.00;163230.06;5053830;28;20101;-56
2022/06/01 05:32:00;;;;;;;32.88;29.67;;;;;;;10.16;100.00;163220.63;5050582;28;20049;-57
2022/06/01 05:34:25;;;;;;;30.05;26.95;;;;;;;10.16;100.00;163221.94;5051829;28;20102;-57
2022/06/01 05:36:51;;;;;;;30.30;26.33;;;;;;;10.15;100.00;163219.28;5050202;28;20052;-56
2022/06/01 05:39:16;;;;;;;30.20;27.27;;;;;;;10.20;100.00;163230.06;5052392;28;20021;-56
2022/06/01 05:41:42;;;;;;;30.25;27.30;;;;;;;10.20;100.00;163230.06;5049897;28;20832;-56
2022/06/01 05:44:07;;;;;;;31.90;28.60;;;;;;;10.26;100.00;163246.25;5051893;28;20467;-57
2022/06/01 05:46:35;;;;;;;31.63;28.52;;;;;;;10.36;100.00;163273.25;5050493;28;20044;-57
2022/06/01 05:49:03;;;;;;;29.50;26.40;;;;;;;10.45;100.00;163296.25;5051616;28;20510;-57
2022/06/01 05:51:29;;;;;;;27.42;24.63;;;;;;;10.53;100.00;163316.53;5050361;28;20400;-57
2022/06/01 05:53:54;;;;;;;28.45;23.92;;;;;;;10.50;100.00;163308.41;5051737;28;20020;-57
2022/06/01 05:56:19;;;;;;;25.52;22.95;;;;;;;10.55;100.00;163321.88;5049726;28;20040;-57
2022/06/01 05:58:45;;;;;;;26.35;23.70;;;;;;;10.62;100.00;163340.78;5051484;28;20025;-57
2022/06/01 06:01:11;;;;;;;28.73;25.40;;;;;;;10.68;100.00;163357.03;5050191;28;20396;-57
2022/06/01 06:03:36;;;;;;;25.77;23.27;;;;;;;10.70;100.00;163362.38;5051211;28;20103;-56
2022/06/01 06:06:15;;;;;;;26.48;23.65;;;;;;;10.75;100.00;163375.91;5050081;28;20036;-57
2022/06/01 06:08:47;;;;;;;26.77;24.05;;;;;;;10.74;100.00;163373.22;5051633;28;20028;-57
2022/06/01 06:11:14;;;;;;;25.90;23.50;;;;;;;10.78;100.00;163382.66;5049630;28;20132;-57
2022/06/01 06:13:39;;;;;;;29.15;26.10;;;;;;;10.95;100.00;163427.19;5050966;28;20032;-57
2022/06/01 06:16:06;;;;;;;27.55;24.90;;;;;;;11.05;100.00;163454.22;5049927;28;20045;-56
2022/06/01 06:18:31;;;;;;;27.13;24.58;;;;;;;11.20;100.00;163492.03;5050821;28;20025;-57
2022/06/01 06:20:56;;;;;;;28.40;25.40;;;;;;;11.30;100.00;163519.00;5049203;28;20044;-56
2022/06/01 06:23:22;;;;;;;31.73;28.63;;;;;;;11.18;100.00;163486.59;5050818;28;20032;-57
2022/06/01 06:25:48;;;;;;;30.35;27.15;;;;;;;11.19;100.00;163489.31;5048888;28;20102;-57
2022/06/01 06:28:14;;;;;;;34.45;30.30;;;;;;;11.40;100.00;163546.03;5051053;28;20021;-57
2022/06/01 06:30:40;;;;;;;37.60;30.55;;;;;;;11.62;100.00;163602.75;5049560;28;20067;-57
2022/06/01 06:33:06;;;;;;;32.13;28.65;;;;;;;11.96;100.00;163691.88;5050694;28;20036;-57
2022/06/01 06:35:32;;;;;;;37.35;33.30;;;;;;;12.26;100.00;163768.97;5049605;28;20037;-57
2022/06/01 06:37:57;;;;;;;34.40;31.23;;;;;;;12.55;100.00;163845.97;5050805;28;20025;-57
2022/06/01 06:40:23;;;;;;;30.02;27.23;;;;;;;12.79;100.00;163908.13;5048510;28;20124;-57
2022/06/01 06:42:48;;;;;;;28.73;25.70;;;;;;;12.72;100.00;163889.22;5050522;28;20480;-57
2022/06/01 06:45:13;;;;;;;31.55;25.20;;;;;;;12.48;100.00;163827.03;5049392;28;20033;-57
2022/06/01 06:47:40;;;;;;;28.27;25.58;;;;;;;12.58;100.00;163854.09;5050304;28;20029;-58
2022/06/01 06:50:09;;;;;;;30.27;27.20;;;;;;;12.86;100.00;163927.06;5049605;28;20057;-58
2022/06/01 06:52:34;;;;;;;24.98;22.58;;;;;;;12.91;100.00;163939.22;5050733;28;20023;-58
2022/06/01 06:55:00;;;;;;;25.85;23.02;;;;;;;12.98;100.00;163959.53;5048684;28;20033;-57
2022/06/01 06:57:25;;;;;;;27.48;24.50;;;;;;;13.21;100.00;164019.03;5050485;28;20055;-58
2022/06/01 06:59:50;;;;;;;29.30;26.40;;;;;;;13.35;100.00;164054.16;5050415;28;20399;-58
2022/06/01 07:02:16;;;;;;;26.65;24.08;;;;;;;13.61;100.00;164124.50;5048783;28;20052;-57
2022/06/01 07:04:46;;;;;;;31.67;23.30;;;;;;;13.58;100.00;164116.41;5050383;28;20107;-58
2022/06/01 07:07:12;;;;;;;23.25;20.88;;;;;;;13.43;100.00;164075.84;5049060;28;20106;-58
2022/06/01 07:09:38;;;;;;;23.80;21.40;;;;;;;13.59;100.00;164119.09;5050212;28;20025;-58
2022/06/01 07:12:04;;;;;;;24.67;21.55;;;;;;;13.79;100.00;164170.50;5048859;28;20099;-58
2022/06/01 07:14:30;;;;;;;24.10;21.65;;;;;;;14.11;100.00;164254.38;5050815;28;20434;-58
2022/06/01 07:16:58;;;;;;;25.77;17.77;;;;;;;14.14;100.00;164262.47;5048417;28;20128;-58
2022/06/01 07:19:23;;;;;;;19.17;17.23;;;;;;;14.16;100.00;164267.88;5050382;28;20143;-57
2022/06/01 07:21:49;;;;;;;17.80;16.02;;;;;;;13.90;100.00;164200.25;5048484;28;20064;-57
2022/06/01 07:24:14;;;;;;;16.92;14.88;;;;;;;13.63;100.00;164129.94;5049930;28;20045;-58
2022/06/01 07:26:43;;;;;;;16.27;14.68;;;;;;;13.55;100.00;164106.97;5048722;28;20048;-58
2022/06/01 07:29:09;;;;;;;16.63;13.85;;;;;;;13.51;100.00;164097.50;5050103;28;20025;-57
2022/06/01 07:31:35;;;;;;;28.90;13.85;;;;;;;13.69;100.00;164143.44;5048581;28;20044;-57
2022/06/01 07:34:00;;;;;;;22.13;13.95;;;;;;;14.02;100.00;164231.34;5050069;28;20028;-58
2022/06/01 07:36:28;;;;;;;15.93;13.95;;;;;;;14.22;100.00;164284.13;5048776;28;20064;-58
2022/06/01 07:44:32;;;;;;;11.82;10.75;;;;;;;14.28;100.00;164299.00;5050370;28;20039;-57
2022/06/01 07:46:58;;;;;;;10.52;9.63;;;;;;;14.49;100.00;164354.44;5048220;28;20037;-57
2022/06/01 07:49:25;;;;;;;10.05;8.77;;;;;;;14.44;100.00;164340.94;5050709;28;20369;-58
2022/06/01 07:51:51;;;;;;;13.88;11.85;;;;;;;14.45;100.00;164343.66;5047685;28;20033;-58
2022/06/01 07:54:17;;;;;;;12.45;11.10;;;;;;;14.60;100.00;164384.25;5053267;28;20037;-58
2022/06/01 07:56:42;;;;;;;14.43;10.70;;;;;;;14.62;100.00;164386.94;5052290;28;20070;-58
2022/06/01 07:59:09;;;;;;;9.27;8.38;;;;;;;14.64;100.00;164392.31;5053981;28;20358;-55
2022/06/01 08:01:35;;;;;;;9.25;8.32;;;;;;;14.61;100.00;164385.56;5051964;28;20530;-58
2022/06/01 08:04:03;;;;;;;11.13;9.98;;;;;;;15.20;100.00;164539.88;5053842;28;20017;-57
2022/06/01 08:06:29;;;;;;;10.47;9.47;;;;;;;15.60;100.00;164644.16;5052454;28;20037;-57
2022/06/01 08:08:55;;;;;;;15.77;9.77;;;;;;;15.72;100.00;164676.66;5053102;28;20028;-57
2022/06/01 08:13:06;;;;;;;9.73;8.82;;;;;;;15.96;100.00;164739.00;5052323;28;20041;-57
2022/06/01 08:14:08;;;;;;;9.02;7.57;;;;;;;16.21;100.00;164805.34;5053686;28;20033;-57
2022/06/01 08:16:33;;;;;;;5.68;5.28;;;;;;;16.59;100.00;164904.19;5051892;28;20052;-57
2022/06/01 08:18:59;;;;;;;9.25;8.32;;;;;;;16.53;100.00;164887.94;5053259;28;20025;-55
2022/06/01 08:21:24;;;;;;;7.28;6.60;;;;;;;16.48;100.00;164877.13;5051954;28;20045;-56
2022/06/01 08:23:49;;;;;;;6.85;6.18;;;;;;;16.26;100.00;164818.88;5052775;28;20028;-57
2022/06/01 08:26:15;;;;;;;7.47;6.85;;;;;;;16.83;100.00;164967.84;5051940;28;20118;-58
2022/06/01 08:28:40;;;;;;;6.30;5.80;;;;;;;16.88;100.00;164980.06;5053259;28;20017;-58
2022/06/01 08:31:05;;;;;;;8.55;5.57;;;;;;;16.93;100.00;164993.69;5057259;28;20040;-58
2022/06/01 08:33:31;;;;;;;7.25;5.18;;;;;;;16.63;100.00;164916.41;5072148;28;20025;-55
2022/06/01 08:35:56;;;;;;;6.45;4.68;;;;;;;16.40;100.00;164855.47;5071281;28;20557;-55
2022/06/01 08:38:22;;;;;;;9.65;4.70;;;;;;;16.12;100.00;164780.94;5051369;28;20040;-56
2022/06/01 08:40:58;;;;;;;7.53;5.93;;;;;;;16.04;100.00;164759.28;5044769;28;20037;-58
2022/06/01 08:43:28;;;;;;;5.18;4.35;;;;;;;16.27;100.00;164820.25;5033135;28;20026;-58
2022/06/01 08:45:58;;;;;;;6.30;5.60;;;;;;;15.87;100.00;164715.94;5031020;28;20042;-58
2022/06/01 08:49:04;;;;;;;4.82;4.32;;;;;;;15.66;100.00;164660.41;5035459;28;20109;-58
2022/06/01 08:51:32;;;;;;;7.20;4.25;;;;;;;15.64;100.00;164654.97;5041191;28;20055;-58
2022/06/01 08:53:59;;;;;;;8.75;4.35;;;;;;;15.90;100.00;164724.09;5049235;28;20048;-58
2022/06/01 08:56:34;;;;;;;5.05;4.65;;;;;;;16.50;100.00;164882.53;5060204;28;20040;-58
2022/06/01 08:59:06;;;;;;;4.35;3.95;;;;;;;17.07;100.00;165031.63;5072568;28;20028;-55
2022/06/01 09:01:43;;;;;;;6.15;4.00;;;;;;;17.82;100.00;165226.78;5070765;28;20036;-55
2022/06/01 09:04:11;;;;;;;4.63;4.22;;;;;;;18.24;100.00;165338.00;5072409;28;20475;-56
2022/06/01 09:06:46;;;;;;;4.63;3.58;;;;;;;18.82;100.00;165489.84;5070962;28;20132;-58
2022/06/01 09:09:37;;;;;;;2.97;2.53;;;;;;;18.97;100.00;165530.59;5071967;28;20494;-58
2022/06/01 09:12:03;;;;;;;2.28;2.15;;;;;;;18.32;100.00;165359.69;5069509;28;20051;-55
2022/06/01 09:14:32;;;;;;;3.90;2.58;;;;;;;18.79;100.00;165483.09;5072863;28;20029;-56
2022/06/01 09:16:59;;;;;;;2.75;2.35;;;;;;;18.75;100.00;165470.88;5070083;28;20487;-56
2022/06/01 09:22:37;;;;;;;3.30;2.85;;;;;;;19.04;100.00;165548.25;5072370;28;20043;-56
2022/06/01 09:25:01;;;;;;;3.65;2.70;;;;;;;17.32;100.00;165095.31;5070574;28;20082;-54
2022/06/01 09:27:42;;;;;;;3.78;3.00;;;;;;;16.60;100.00;164908.31;5072198;28;20499;-56
2022/06/01 09:30:20;;;;;;;4.68;2.92;;;;;;;16.22;100.00;164806.69;5070411;28;20056;-56
2022/06/01 09:33:03;;;;;;;4.47;3.33;;;;;;;16.59;100.00;164904.19;5071917;28;20024;-56
2022/06/01 09:35:33;;;;;;;4.57;3.40;;;;;;;17.14;100.00;165049.22;5070562;28;20503;-56
2022/06/01 09:38:03;;;;;;;3.75;3.42;;;;;;;17.61;100.00;165172.53;5071334;28;20074;-58
2022/06/01 09:40:35;;;;;;;3.53;3.20;;;;;;;17.36;100.00;165106.13;5070547;28;20128;-58
2022/06/01 09:43:01;;;;;;;2.50;2.30;;;;;;;17.61;100.00;165172.53;5071983;28;20054;-58
2022/06/01 09:45:42;;;;;;;3.50;3.10;;;;;;;17.64;100.00;165179.34;5070231;28;20036;-58
2022/06/01 09:48:13;;;;;;;4.47;3.20;;;;;;;17.73;100.00;165203.72;5071743;28;20066;-58
2022/06/01 09:50:42;;;;;;;4.47;2.95;;;;;;;17.88;100.00;165244.38;5070256;28;20043;-59
2022/06/01 09:53:11;;;;;;;3.40;2.70;;;;;;;18.00;100.00;165275.59;5071675;28;20070;-58
2022/06/01 09:55:55;;;;;;;6.43;2.42;;;;;;;18.05;100.00;165287.81;5070194;28;20044;-58
2022/06/01 10:06:58;;;;;;;4.22;3.47;;;;;;;18.96;100.00;165526.56;5063474;28;20048;-56
2022/06/01 10:09:28;;;;;;;4.78;4.07;;;;;;;19.01;100.00;165541.47;5055406;28;20021;-55
2022/06/01 10:11:54;;;;;;;5.45;3.40;;;;;;;19.31;100.00;165618.78;5065449;28;20045;-56
2022/06/01 10:14:21;;;;;;;4.50;2.67;;;;;;;19.20;100.00;165590.28;5053333;28;20025;-55
2022/06/01 10:17:11;;;;;;;6.13;3.53;;;;;;;19.62;100.00;165700.19;5068825;28;20040;-58
2022/06/01 10:20:04;;;;;;;2.95;2.60;;;;;;;19.89;100.00;165772.16;5071551;28;20025;-59
2022/06/01 10:22:48;;;;;;;3.40;3.13;;;;;;;19.92;100.00;165780.28;5068904;28;20033;-59
2022/06/01 10:25:14;;;;;;;4.38;2.60;;;;;;;19.53;100.00;165675.75;5068622;28;20056;-58
2022/06/01 10:27:50;;;;;;;3.50;3.20;;;;;;;19.01;100.00;165541.47;5070815;28;20104;-55
2022/06/01 10:30:32;;;;;;;3.78;2.65;;;;;;;18.42;100.00;165384.09;5068969;28;20054;-56
2022/06/01 10:33:03;;;;;;;2.88;2.22;;;;;;;18.06;100.00;165291.88;5070650;28;20028;-56
2022/06/01 10:35:28;;;;;;;6.65;3.90;;;;;;;18.13;100.00;165308.19;5069533;28;20144;-56
2022/06/01 10:38:17;;;;;;;3.50;3.20;;;;;;;18.33;100.00;165362.41;5070674;28;20669;-58
2022/06/01 10:41:01;;;;;;;;;;;;;;;18.81;100.00;165487.13;5069757;28;20048;-58
2022/06/01 10:44:18;;;;;;;2.25;2.13;;;;;;;18.96;100.00;165527.88;5070346;28;19974;-58
2022/06/01 10:47:02;;;;;;;4.20;2.28;;;;;;;19.23;100.00;165598.44;5015722;28;20458;-55
2022/06/01 10:49:55;;;;;;;2.85;2.50;;;;;;;19.44;100.00;165652.72;5049330;28;20392;-56
2022/06/01 10:52:35;;;;;;;3.00;2.25;;;;;;;19.01;100.00;165540.09;5048814;28;20440;-55
2022/06/01 10:55:12;;;;;;;4.18;2.10;;;;;;;18.58;100.00;165427.47;5049659;28;20405;-55
2022/06/01 10:57:41;;;;;;;1.60;1.50;;;;;;;18.16;100.00;165316.28;5050713;28;20342;-55
2022/06/01 11:00:10;;;;;;;3.05;2.75;;;;;;;17.50;100.00;165142.72;5048843;28;20049;-55
2022/06/01 11:03:17;;;;;;;5.43;2.17;;;;;;;16.77;100.00;164951.59;5050283;28;20468;-56
2022/06/01 11:06:00;;;;;;;2.42;1.90;;;;;;;16.28;100.00;164822.91;5049156;28;20392;-56
2022/06/01 11:08:37;;;;;;;3.38;1.80;;;;;;;15.25;100.00;164552.09;5050560;28;20035;-56
2022/06/01 11:11:15;;;;;;;2.42;2.20;;;;;;;14.92;100.00;164466.81;5048933;28;20038;-56
2022/06/01 11:13:57;;;;;;;2.92;2.33;;;;;;;14.62;100.00;164386.94;5050159;28;20037;-56
2022/06/01 11:16:53;;;;;;;6.95;2.05;;;;;;;14.58;100.00;164377.47;5048947;28;20119;-56
2022/06/01 11:19:48;;;;;;;3.42;1.92;;;;;;;14.44;100.00;164340.94;5050561;28;20108;-56
2022/06/01 11:22:51;;;;;;;7.10;2.53;;;;;;;14.41;100.00;164332.78;5048488;28;20044;-56
2022/06/01 11:25:34;;;;;;;2.75;1.85;;;;;;;14.37;100.00;164322.00;5048721;28;20060;-58
2022/06/01 11:28:18;;;;;;;2.72;2.03;;;;;;;14.11;100.00;164254.38;5053575;28;20029;-58
2022/06/01 11:31:10;;;;;;;6.60;3.05;;;;;;;13.84;100.00;164184.00;5052827;28;20123;-58
2022/06/01 11:33:44;;;;;;;4.68;3.20;;;;;;;13.54;100.00;164104.25;5054289;28;20021;-57
2022/06/01 11:36:39;;;;;;;3.63;3.33;;;;;;;13.31;100.00;164044.69;5052725;28;20496;-58
2022/06/01 11:39:23;;;;;;;7.38;3.92;;;;;;;12.90;100.00;163937.91;5050731;28;20040;-58
2022/06/01 11:42:05;;;;;;;6.78;4.25;;;;;;;12.24;100.00;163763.53;5051964;28;20044;-58
2022/06/01 11:44:37;;;;;;;6.03;5.25;;;;;;;12.13;100.00;163735.16;5053397;28;20033;-57
2022/06/01 11:47:15;;;;;;;12.98;5.43;;;;;;;12.16;100.00;163743.31;5068997;28;20495;-57
2022/06/01 11:49:44;;;;;;;4.65;4.25;;;;;;;12.12;100.00;163732.47;5073929;28;20082;-57